CheckWX is a tool to help pilots better visualize weather data.  It is not intended as a substitute for an official pre-flight weather briefing.

18:44:36 UTC

LLBG METAR
Ben Gurion International Airport
Tel Aviv, Israel
Current

25 mins ago

LLBG 121820Z 01007KT CAVOK 24/09 Q1012 NOSIG
Observed
Nov-12 @ 18:20 UTC
Wind
  • 010° at 7 KTS
Visibility
10,000+ meters
Flight Rules
VFR
Cloud Levels
  • Clear skies
Temperature
24°C / 75°F
Dewpoint
C / 48°F
Humidity
39%
Altimeter
29.88" Hg
Pressure
1011.92 hPa
Previous

55 mins ago

LLBG 121750Z 35006KT CAVOK 25/09 Q1012 NOSIG
Observed
Nov-12 @ 17:50 UTC
Wind
  • 350° at 6 KTS
Visibility
10,000+ meters
Flight Rules
VFR
Cloud Levels
  • Clear skies
Temperature
25°C / 77°F
Dewpoint
C / 48°F
Humidity
36%
Altimeter
29.88" Hg
Pressure
1011.92 hPa
Previous

1 hour ago

LLBG 121720Z 03005KT CAVOK 26/08 Q1012 NOSIG
Observed
Nov-12 @ 17:20 UTC
Wind
  • 030° at 5 KTS
Visibility
10,000+ meters
Flight Rules
VFR
Cloud Levels
  • Clear skies
Temperature
26°C / 79°F
Dewpoint
C / 46°F
Humidity
32%
Altimeter
29.88" Hg
Pressure
1011.92 hPa